createdAt,value
2017-12-31T00:01:15.513Z,29.77
2017-12-31T00:03:43.298Z,20.63
2017-12-31T00:06:11.368Z,29.37
2017-12-31T00:08:39.131Z,22.00
2017-12-31T00:11:07.027Z,21.50
2017-12-31T00:13:36.080Z,20.70
2017-12-31T00:16:03.971Z,28.13
2017-12-31T00:18:31.723Z,24.10
2017-12-31T00:20:59.220Z,23.37
2017-12-31T00:23:27.545Z,29.83
2017-12-31T00:25:55.323Z,13.73
2017-12-31T00:28:22.839Z,37.43
2017-12-31T00:30:50.539Z,30.13
2017-12-31T00:33:18.795Z,19.97
2017-12-31T00:35:46.278Z,24.50
2017-12-31T00:38:13.794Z,34.27
2017-12-31T00:40:41.286Z,41.30
2017-12-31T00:43:10.130Z,20.70
2017-12-31T00:45:38.393Z,33.20
2017-12-31T00:48:06.830Z,38.13
2017-12-31T00:50:34.375Z,21.30
2017-12-31T00:53:02.246Z,26.97
2017-12-31T00:55:30.024Z,29.33
2017-12-31T00:57:57.926Z,28.27
2017-12-31T01:00:26.240Z,54.27
2017-12-31T01:02:53.926Z,23.40
2017-12-31T01:05:22.315Z,39.13
2017-12-31T01:07:49.815Z,20.70
2017-12-31T01:10:17.322Z,30.77
2017-12-31T01:12:44.983Z,31.63
2017-12-31T01:15:13.359Z,37.57
2017-12-31T01:17:40.855Z,26.87
2017-12-31T01:20:08.794Z,33.40
2017-12-31T01:22:36.339Z,39.43
2017-12-31T01:25:04.109Z,39.87
2017-12-31T01:27:32.823Z,37.67
2017-12-31T01:30:01.174Z,39.90
2017-12-31T01:32:29.203Z,33.97
2017-12-31T01:34:56.715Z,29.03
2017-12-31T01:37:24.603Z,28.07
2017-12-31T01:39:52.879Z,24.63
2017-12-31T01:42:20.595Z,29.30
2017-12-31T01:44:48.377Z,33.53
2017-12-31T01:47:19.385Z,31.43
2017-12-31T01:49:46.880Z,25.20
2017-12-31T01:52:14.378Z,25.90
2017-12-31T01:54:41.875Z,42.73
2017-12-31T01:57:09.632Z,26.10
2017-12-31T01:59:37.525Z,34.50
2017-12-31T02:02:05.169Z,32.67
2017-12-31T02:04:32.659Z,19.47
2017-12-31T02:07:00.198Z,29.43
2017-12-31T02:09:28.446Z,28.33
2017-12-31T02:11:55.959Z,30.30
2017-12-31T02:14:23.564Z,37.13
2017-12-31T02:16:51.111Z,35.70
2017-12-31T02:19:18.900Z,14.67
2017-12-31T02:21:46.658Z,35.33
2017-12-31T02:24:14.301Z,22.47
2017-12-31T02:26:42.726Z,28.50
2017-12-31T02:29:10.262Z,36.63
2017-12-31T02:31:37.764Z,26.70
2017-12-31T02:34:05.479Z,19.70
2017-12-31T02:36:32.986Z,31.33
2017-12-31T02:39:00.803Z,30.47
2017-12-31T02:41:29.617Z,36.30
2017-12-31T02:43:57.947Z,25.40
2017-12-31T02:46:25.487Z,31.77
2017-12-31T02:48:53.286Z,27.83
2017-12-31T02:51:21.367Z,22.60
2017-12-31T02:53:49.436Z,31.57
2017-12-31T02:56:17.151Z,28.93
2017-12-31T02:58:44.651Z,32.57
2017-12-31T03:01:12.154Z,31.67
2017-12-31T03:03:39.663Z,38.73
2017-12-31T03:06:07.327Z,29.90
2017-12-31T03:08:34.836Z,29.53
2017-12-31T03:11:02.328Z,33.63
2017-12-31T03:13:30.003Z,35.57
2017-12-31T03:15:57.768Z,42.67
2017-12-31T03:18:25.487Z,30.90
2017-12-31T03:20:53.607Z,33.57
2017-12-31T03:23:21.102Z,36.83
2017-12-31T03:25:48.823Z,34.50
2017-12-31T03:28:16.332Z,35.57
2017-12-31T03:30:44.627Z,33.20
2017-12-31T03:33:12.754Z,26.47
2017-12-31T03:35:41.539Z,35.00
2017-12-31T03:38:09.447Z,28.27
2017-12-31T03:40:36.945Z,45.53
2017-12-31T03:43:04.767Z,15.43
2017-12-31T03:45:33.386Z,31.07
2017-12-31T03:48:00.890Z,36.47
2017-12-31T03:50:29.533Z,34.47
2017-12-31T03:52:57.068Z,14.03
2017-12-31T03:55:25.035Z,33.10
2017-12-31T03:57:52.527Z,24.40
2017-12-31T04:00:20.280Z,44.33
2017-12-31T04:02:47.775Z,30.83
2017-12-31T04:05:15.498Z,21.70
2017-12-31T04:07:43.391Z,42.70
2017-12-31T04:10:10.900Z,25.80
2017-12-31T04:12:38.483Z,37.03
2017-12-31T04:15:06.242Z,40.33
2017-12-31T04:17:34.007Z,34.13
2017-12-31T04:20:01.772Z,19.67
2017-12-31T04:22:29.266Z,32.53
2017-12-31T04:24:56.777Z,26.77
2017-12-31T04:27:25.131Z,29.53
2017-12-31T04:29:52.634Z,27.90
2017-12-31T04:32:20.240Z,24.53
2017-12-31T04:34:47.753Z,29.00
2017-12-31T04:37:16.043Z,35.57
2017-12-31T04:39:44.498Z,20.93
2017-12-31T04:42:12.263Z,25.20
2017-12-31T04:44:39.764Z,23.87
2017-12-31T04:47:07.788Z,26.23
2017-12-31T04:49:35.549Z,24.80
2017-12-31T04:52:03.046Z,25.70
2017-12-31T04:54:30.543Z,16.60
2017-12-31T04:56:59.190Z,31.30
2017-12-31T04:59:26.910Z,33.33
2017-12-31T05:01:54.410Z,26.47
2017-12-31T05:04:22.314Z,35.87
2017-12-31T05:06:49.803Z,33.17
2017-12-31T05:09:17.350Z,30.30
2017-12-31T05:11:45.115Z,28.93
2017-12-31T05:14:13.535Z,28.80
2017-12-31T05:16:41.034Z,21.97
2017-12-31T05:19:08.710Z,30.63
2017-12-31T05:21:36.210Z,23.70
2017-12-31T05:24:03.930Z,23.13
2017-12-31T05:26:31.697Z,38.10
2017-12-31T05:28:59.192Z,29.03
2017-12-31T05:31:26.702Z,25.03
2017-12-31T05:33:54.894Z,22.70
2017-12-31T05:36:22.421Z,32.03
2017-12-31T05:38:49.919Z,27.43
2017-12-31T05:41:17.970Z,30.00
2017-12-31T05:43:45.463Z,42.20
2017-12-31T05:46:12.963Z,35.57
2017-12-31T05:48:40.615Z,36.23
2017-12-31T05:51:08.411Z,34.30
2017-12-31T05:53:36.002Z,29.47
2017-12-31T05:56:03.815Z,23.87
2017-12-31T05:58:31.305Z,35.00
2017-12-31T06:00:59.628Z,30.50
2017-12-31T06:03:28.154Z,30.73
2017-12-31T06:05:55.915Z,29.70
2017-12-31T06:08:23.679Z,25.60
2017-12-31T06:10:51.444Z,38.77
2017-12-31T06:13:18.938Z,53.70
2017-12-31T06:15:46.548Z,44.17
2017-12-31T06:18:14.095Z,31.30
2017-12-31T06:20:41.595Z,36.67
2017-12-31T06:23:09.095Z,30.77
2017-12-31T06:25:36.988Z,30.40
2017-12-31T06:28:04.551Z,24.70
2017-12-31T06:30:32.050Z,34.97
2017-12-31T06:32:59.551Z,22.03
2017-12-31T06:35:27.042Z,31.53
2017-12-31T06:37:54.545Z,36.53
2017-12-31T06:40:22.803Z,40.47
2017-12-31T06:42:50.486Z,31.77
2017-12-31T06:45:17.979Z,22.70
2017-12-31T06:47:45.592Z,42.23
2017-12-31T06:50:13.856Z,25.73
2017-12-31T06:52:41.578Z,27.07
2017-12-31T06:55:09.343Z,28.40
2017-12-31T06:57:37.106Z,26.33
2017-12-31T07:00:04.870Z,20.00
2017-12-31T07:02:32.635Z,28.60
2017-12-31T07:05:00.139Z,25.57
2017-12-31T07:07:27.638Z,28.30
2017-12-31T07:09:55.310Z,26.13
2017-12-31T07:12:23.048Z,29.40
2017-12-31T07:14:51.236Z,32.67
2017-12-31T07:17:18.868Z,37.87
2017-12-31T07:19:46.374Z,34.63
2017-12-31T07:22:13.868Z,33.40
2017-12-31T07:24:41.387Z,44.40
2017-12-31T07:27:08.994Z,24.57
2017-12-31T07:29:36.938Z,29.73
2017-12-31T07:32:04.443Z,46.33
2017-12-31T07:34:31.956Z,31.27
2017-12-31T07:37:00.328Z,30.87
2017-12-31T07:39:27.833Z,50.23
2017-12-31T07:41:55.626Z,35.00
2017-12-31T07:44:23.144Z,28.57
2017-12-31T07:46:51.419Z,24.07
2017-12-31T07:49:18.926Z,25.53
2017-12-31T07:51:47.291Z,37.87
2017-12-31T07:54:14.802Z,29.00
2017-12-31T07:56:42.423Z,26.60
2017-12-31T07:59:09.970Z,31.53
2017-12-31T08:01:37.830Z,30.23
2017-12-31T08:04:05.458Z,30.87
2017-12-31T08:06:33.262Z,37.73
2017-12-31T08:09:01.781Z,31.00
2017-12-31T08:11:29.395Z,40.83
2017-12-31T08:13:56.896Z,34.53
2017-12-31T08:16:24.619Z,34.30
2017-12-31T08:18:52.382Z,38.87
2017-12-31T08:21:20.159Z,49.83
2017-12-31T08:23:47.663Z,33.57
2017-12-31T08:26:15.366Z,54.77
2017-12-31T08:28:43.131Z,36.20
2017-12-31T08:31:10.899Z,61.83
2017-12-31T08:33:38.392Z,39.03
2017-12-31T08:36:06.902Z,61.50
2017-12-31T08:38:34.405Z,35.47
2017-12-31T08:41:01.960Z,47.17
2017-12-31T08:43:30.011Z,40.70
2017-12-31T08:45:57.520Z,48.47
2017-12-31T08:48:25.250Z,34.13
2017-12-31T08:50:53.007Z,59.13
2017-12-31T08:53:20.518Z,37.03
2017-12-31T08:55:48.535Z,38.73
2017-12-31T08:58:16.043Z,44.63
2017-12-31T09:00:43.754Z,45.60
2017-12-31T09:03:11.259Z,52.73
2017-12-31T09:05:38.930Z,38.33
2017-12-31T09:08:06.523Z,40.47
2017-12-31T09:10:35.010Z,41.13
2017-12-31T09:13:02.514Z,40.53
2017-12-31T09:15:30.008Z,44.67
2017-12-31T09:17:57.767Z,30.57
2017-12-31T09:20:25.618Z,45.67
2017-12-31T09:22:53.500Z,34.73
2017-12-31T09:25:20.979Z,27.57
2017-12-31T09:27:49.743Z,55.90
2017-12-31T09:30:18.040Z,55.37
2017-12-31T09:32:45.598Z,33.60
2017-12-31T09:35:13.091Z,31.80
2017-12-31T09:37:40.594Z,37.40
2017-12-31T09:40:08.098Z,34.53
2017-12-31T09:42:35.695Z,37.93
2017-12-31T09:45:03.495Z,31.53
2017-12-31T09:47:31.000Z,22.97
2017-12-31T09:49:58.500Z,22.40
2017-12-31T09:52:27.099Z,42.40
2017-12-31T09:54:54.591Z,27.23
2017-12-31T09:57:22.460Z,32.70
2017-12-31T09:59:51.304Z,24.23
2017-12-31T10:02:18.791Z,25.40
2017-12-31T10:04:46.527Z,28.60
2017-12-31T10:07:14.023Z,23.70
2017-12-31T10:09:41.706Z,25.60
2017-12-31T10:12:09.212Z,23.50
2017-12-31T10:14:36.707Z,22.23
2017-12-31T10:17:04.208Z,25.53
2017-12-31T10:19:31.706Z,20.07
2017-12-31T10:21:59.211Z,18.97
2017-12-31T10:24:26.718Z,15.67
2017-12-31T10:26:54.749Z,15.53
2017-12-31T10:29:22.637Z,14.03
2017-12-31T10:31:50.947Z,15.90
2017-12-31T10:34:18.467Z,13.10
2017-12-31T10:36:45.959Z,24.30
2017-12-31T10:39:13.476Z,11.10
2017-12-31T10:41:41.086Z,13.93
2017-12-31T10:44:09.207Z,16.60
2017-12-31T10:46:36.705Z,12.03
2017-12-31T10:49:04.215Z,5.43
2017-12-31T10:51:31.890Z,19.67
2017-12-31T10:53:59.382Z,4.27
2017-12-31T10:56:26.877Z,8.23
2017-12-31T10:58:54.381Z,4.80
2017-12-31T11:01:22.651Z,4.93
2017-12-31T11:03:50.401Z,5.27
2017-12-31T11:06:17.894Z,6.20
2017-12-31T11:08:45.607Z,5.17
2017-12-31T11:11:13.382Z,8.87
2017-12-31T11:13:41.146Z,5.63
2017-12-31T11:16:08.648Z,7.67
2017-12-31T11:18:36.678Z,6.93
2017-12-31T11:21:04.752Z,5.70
2017-12-31T11:23:32.695Z,5.80
2017-12-31T11:26:00.274Z,9.67
2017-12-31T11:28:27.770Z,10.10
2017-12-31T11:30:55.494Z,7.97
2017-12-31T11:33:22.994Z,7.63
2017-12-31T11:35:50.511Z,4.50
2017-12-31T11:38:18.431Z,10.10
2017-12-31T11:40:45.949Z,6.30
2017-12-31T11:43:13.694Z,10.03
2017-12-31T11:45:41.195Z,6.83
2017-12-31T11:48:08.803Z,5.50
2017-12-31T11:50:36.307Z,7.97
2017-12-31T11:53:03.828Z,5.33
2017-12-31T11:55:31.335Z,10.10
2017-12-31T11:57:59.079Z,9.70
2017-12-31T12:00:26.823Z,12.70
2017-12-31T12:02:54.552Z,12.20
2017-12-31T12:05:22.338Z,13.63
2017-12-31T12:07:49.842Z,12.23
2017-12-31T12:10:17.352Z,12.00
2017-12-31T12:12:44.889Z,9.80
2017-12-31T12:15:12.400Z,10.23
2017-12-31T12:17:39.912Z,14.00
2017-12-31T12:20:07.975Z,14.23
2017-12-31T12:22:35.482Z,10.97
2017-12-31T12:25:02.988Z,15.17
2017-12-31T12:27:30.500Z,8.23
2017-12-31T12:29:58.090Z,13.80
2017-12-31T12:32:25.619Z,12.17
2017-12-31T12:34:53.643Z,14.37
2017-12-31T12:37:21.462Z,20.17
2017-12-31T12:39:49.183Z,14.90
2017-12-31T12:42:16.690Z,9.13
2017-12-31T12:44:45.107Z,11.50
2017-12-31T12:47:13.087Z,13.37
2017-12-31T12:49:40.907Z,14.17
2017-12-31T12:52:08.567Z,23.07
2017-12-31T12:54:36.292Z,18.00
2017-12-31T12:57:03.809Z,14.60
2017-12-31T12:59:31.354Z,14.13
2017-12-31T13:01:59.383Z,12.53
2017-12-31T13:04:27.106Z,22.83
2017-12-31T13:06:55.254Z,14.87
2017-12-31T13:09:22.927Z,10.40
2017-12-31T13:11:51.174Z,17.00
2017-12-31T13:14:20.278Z,13.70
2017-12-31T13:16:48.098Z,10.70
2017-12-31T13:19:16.507Z,16.97
2017-12-31T13:21:44.420Z,13.40
2017-12-31T13:24:11.955Z,13.30
2017-12-31T13:26:39.406Z,11.23
2017-12-31T13:29:07.814Z,11.30
2017-12-31T13:31:36.003Z,17.40
2017-12-31T13:34:04.291Z,21.97
2017-12-31T13:36:31.791Z,18.70
2017-12-31T13:38:59.510Z,13.10
2017-12-31T13:41:27.016Z,9.93
2017-12-31T13:43:55.355Z,16.83
2017-12-31T13:46:22.864Z,18.03
2017-12-31T13:48:50.586Z,9.87
2017-12-31T13:51:18.642Z,16.50
2017-12-31T13:53:46.677Z,8.73
2017-12-31T13:56:14.179Z,14.30
2017-12-31T13:58:41.792Z,16.20
2017-12-31T14:01:09.369Z,8.03
2017-12-31T14:03:37.488Z,11.43
2017-12-31T14:06:05.188Z,22.40
2017-12-31T14:08:33.459Z,16.13
2017-12-31T14:11:01.054Z,19.90
2017-12-31T14:13:28.558Z,15.23
2017-12-31T14:15:56.179Z,13.40
2017-12-31T14:18:23.698Z,6.57
2017-12-31T14:20:51.487Z,16.23
2017-12-31T14:23:18.991Z,19.73
2017-12-31T14:25:46.503Z,11.80
2017-12-31T14:28:14.011Z,11.77
2017-12-31T14:30:42.275Z,10.63
2017-12-31T14:33:09.990Z,13.70
2017-12-31T14:35:37.501Z,19.83
2017-12-31T14:38:05.835Z,20.03
2017-12-31T14:40:33.344Z,14.33
2017-12-31T14:43:01.336Z,10.27
2017-12-31T14:45:29.430Z,10.80
2017-12-31T14:47:57.492Z,8.23
2017-12-31T14:50:25.280Z,7.90
2017-12-31T14:52:52.770Z,21.47
2017-12-31T14:55:20.487Z,12.57
2017-12-31T14:57:47.986Z,12.80
2017-12-31T15:00:15.503Z,11.20
2017-12-31T15:02:43.007Z,12.60
2017-12-31T15:05:11.275Z,12.20
2017-12-31T15:07:38.781Z,22.97
2017-12-31T15:10:06.886Z,17.40
2017-12-31T15:12:34.504Z,15.10
2017-12-31T15:15:02.119Z,15.43
2017-12-31T15:17:30.030Z,13.73
2017-12-31T15:19:57.851Z,10.57
2017-12-31T15:22:25.578Z,12.20
2017-12-31T15:24:53.654Z,18.83
2017-12-31T15:27:21.159Z,11.37
2017-12-31T15:29:48.667Z,10.57
2017-12-31T15:32:16.175Z,16.80
2017-12-31T15:34:43.753Z,12.90
2017-12-31T15:37:11.660Z,19.87
2017-12-31T15:39:39.310Z,12.63
2017-12-31T15:42:06.819Z,9.90
2017-12-31T15:44:35.154Z,13.43
2017-12-31T15:47:02.858Z,16.20
2017-12-31T15:49:31.008Z,15.00
2017-12-31T15:51:59.063Z,13.23
2017-12-31T15:54:26.574Z,20.63
2017-12-31T15:56:54.271Z,12.20
2017-12-31T15:59:22.239Z,14.27
2017-12-31T16:01:49.801Z,25.73
2017-12-31T16:04:17.295Z,23.07
2017-12-31T16:06:45.838Z,18.60
2017-12-31T16:09:13.318Z,15.60
2017-12-31T16:11:40.851Z,13.80
2017-12-31T16:14:09.109Z,13.57
2017-12-31T16:16:36.615Z,13.07
2017-12-31T16:19:05.479Z,8.90
2017-12-31T16:21:33.085Z,15.43
2017-12-31T16:24:00.708Z,12.47
2017-12-31T16:26:28.355Z,16.13
2017-12-31T16:28:55.859Z,11.00
2017-12-31T16:31:23.358Z,9.10
2017-12-31T16:33:51.607Z,39.20
2017-12-31T16:36:19.115Z,17.37
2017-12-31T16:38:46.632Z,11.07
2017-12-31T16:41:14.287Z,14.23
2017-12-31T16:43:41.819Z,17.27
2017-12-31T16:46:09.838Z,25.23
2017-12-31T16:48:37.362Z,33.93
2017-12-31T16:51:04.899Z,34.60
2017-12-31T16:53:32.622Z,17.30
2017-12-31T16:56:00.127Z,25.70
2017-12-31T16:58:28.407Z,26.90
2017-12-31T17:00:55.904Z,20.63
2017-12-31T17:03:23.995Z,17.67
2017-12-31T17:05:51.495Z,13.20
2017-12-31T17:08:19.870Z,15.23
2017-12-31T17:10:48.145Z,17.73
2017-12-31T17:13:15.875Z,15.93
2017-12-31T17:15:43.398Z,18.83
2017-12-31T17:18:10.923Z,25.33
2017-12-31T17:20:39.199Z,21.20
2017-12-31T17:23:06.919Z,18.63
2017-12-31T17:25:34.476Z,18.60
2017-12-31T17:28:02.027Z,21.00
2017-12-31T17:30:29.599Z,22.80
2017-12-31T17:32:57.363Z,38.00
2017-12-31T17:35:24.886Z,258.17
2017-12-31T17:37:52.391Z,86.57
2017-12-31T17:40:20.116Z,80.13
2017-12-31T17:42:47.764Z,78.90
2017-12-31T17:45:15.311Z,35.00
2017-12-31T17:47:42.814Z,277.03
2017-12-31T17:50:10.770Z,186.27
2017-12-31T17:52:38.280Z,167.47
2017-12-31T17:55:06.923Z,91.87
2017-12-31T17:57:34.431Z,67.20
2017-12-31T18:00:01.963Z,45.30
2017-12-31T18:02:29.598Z,61.83
2017-12-31T18:04:57.134Z,105.70
2017-12-31T18:07:24.823Z,65.43
2017-12-31T18:09:52.345Z,70.10
2017-12-31T18:12:20.027Z,62.57
2017-12-31T18:14:47.642Z,47.10
2017-12-31T18:17:15.923Z,50.90
2017-12-31T18:19:43.608Z,93.87
2017-12-31T18:22:11.121Z,46.47
2017-12-31T18:24:38.642Z,120.97
2017-12-31T18:27:06.151Z,27.07
2017-12-31T18:29:34.691Z,53.20
2017-12-31T18:32:02.458Z,38.53
2017-12-31T18:34:30.223Z,36.80
2017-12-31T18:36:57.767Z,30.63
2017-12-31T18:39:26.234Z,44.97
2017-12-31T18:41:54.536Z,47.57
2017-12-31T18:44:22.199Z,41.73
2017-12-31T18:46:50.498Z,36.63
2017-12-31T18:49:18.006Z,40.53
2017-12-31T18:51:45.804Z,35.93
2017-12-31T18:54:13.564Z,32.33
2017-12-31T18:56:41.194Z,27.83
2017-12-31T18:59:09.690Z,31.53
2017-12-31T19:01:37.771Z,29.70
2017-12-31T19:04:05.407Z,32.50
2017-12-31T19:06:32.967Z,36.20
2017-12-31T19:09:00.470Z,37.70
2017-12-31T19:11:27.995Z,40.23
2017-12-31T19:13:55.619Z,42.87
2017-12-31T19:16:24.059Z,33.63
2017-12-31T19:18:51.988Z,38.40
2017-12-31T19:21:19.551Z,34.37
2017-12-31T19:23:47.058Z,35.67
2017-12-31T19:26:14.819Z,35.23
2017-12-31T19:28:42.556Z,40.00
2017-12-31T19:31:10.322Z,57.90
2017-12-31T19:33:37.827Z,38.30
2017-12-31T19:36:06.157Z,35.07
2017-12-31T19:38:34.051Z,40.13
2017-12-31T19:41:01.707Z,31.53
2017-12-31T19:43:29.446Z,43.77
2017-12-31T19:45:57.823Z,67.97
2017-12-31T19:48:26.175Z,68.87
2017-12-31T19:50:53.967Z,37.83
2017-12-31T19:53:21.583Z,66.10
2017-12-31T19:55:49.215Z,54.13
2017-12-31T19:58:16.950Z,39.87
2017-12-31T20:00:45.333Z,44.47
2017-12-31T20:03:13.752Z,63.93
2017-12-31T20:05:41.375Z,57.97
2017-12-31T20:08:08.927Z,48.33
2017-12-31T20:10:36.431Z,44.90
2017-12-31T20:13:03.952Z,50.57
2017-12-31T20:15:31.463Z,54.70
2017-12-31T20:17:58.971Z,56.50
2017-12-31T20:20:26.522Z,44.00
2017-12-31T20:22:54.026Z,54.77
2017-12-31T20:25:21.643Z,43.90
2017-12-31T20:27:49.160Z,40.83
2017-12-31T20:30:16.763Z,39.70
2017-12-31T20:32:44.381Z,37.10
2017-12-31T20:35:12.179Z,46.20
2017-12-31T20:37:39.708Z,41.70
2017-12-31T20:40:07.335Z,35.47
2017-12-31T20:42:34.871Z,44.60
2017-12-31T20:45:02.383Z,27.90
2017-12-31T20:47:30.075Z,41.47
2017-12-31T20:49:57.587Z,37.83
2017-12-31T20:52:25.291Z,36.53
2017-12-31T20:54:54.294Z,32.63
2017-12-31T20:57:22.056Z,28.30
2017-12-31T20:59:49.558Z,47.93
2017-12-31T21:02:17.066Z,39.60
2017-12-31T21:04:44.698Z,49.60
2017-12-31T21:07:12.487Z,57.27
2017-12-31T21:09:40.252Z,48.27
2017-12-31T21:12:07.788Z,64.73
2017-12-31T21:14:35.447Z,46.50
2017-12-31T21:17:03.235Z,60.57
2017-12-31T21:19:31.102Z,54.57
2017-12-31T21:21:58.608Z,62.00
2017-12-31T21:24:26.899Z,68.43
2017-12-31T21:26:54.402Z,53.50
2017-12-31T21:29:21.957Z,49.87
2017-12-31T21:31:49.466Z,72.53
2017-12-31T21:34:16.966Z,64.70
2017-12-31T21:36:44.730Z,80.40
2017-12-31T21:39:13.351Z,89.37
2017-12-31T21:41:40.975Z,76.50
2017-12-31T21:44:08.491Z,54.37
2017-12-31T21:46:36.091Z,59.13
2017-12-31T21:49:03.855Z,100.80
2017-12-31T21:51:31.581Z,60.70
2017-12-31T21:53:59.089Z,59.03
2017-12-31T21:56:26.591Z,65.20
2017-12-31T21:58:54.255Z,82.87
2017-12-31T22:01:21.770Z,65.20
2017-12-31T22:03:50.108Z,47.20
2017-12-31T22:06:18.509Z,65.10
2017-12-31T22:08:46.003Z,54.60
2017-12-31T22:11:13.535Z,48.73
2017-12-31T22:13:42.599Z,76.47
2017-12-31T22:16:10.175Z,60.67
2017-12-31T22:18:37.675Z,75.87
2017-12-31T22:21:05.706Z,64.17
2017-12-31T22:23:33.468Z,75.53
2017-12-31T22:26:00.971Z,62.70
2017-12-31T22:28:28.687Z,59.10
2017-12-31T22:30:56.294Z,55.57
2017-12-31T22:33:24.559Z,56.67
2017-12-31T22:35:52.282Z,46.47
2017-12-31T22:38:19.791Z,34.63
2017-12-31T22:40:47.474Z,37.10
2017-12-31T22:43:15.263Z,40.70
2017-12-31T22:45:43.283Z,41.13
2017-12-31T22:48:10.774Z,47.83
2017-12-31T22:50:38.294Z,45.80
2017-12-31T22:53:05.914Z,47.83
2017-12-31T22:55:33.472Z,40.97
2017-12-31T22:58:01.240Z,47.27
2017-12-31T23:00:29.370Z,102.63
2017-12-31T23:02:58.301Z,544.43
2017-12-31T23:05:25.828Z,211.60
2017-12-31T23:07:53.331Z,393.00
2017-12-31T23:10:20.850Z,416.97
2017-12-31T23:12:48.435Z,461.13
2017-12-31T23:15:15.942Z,419.17
2017-12-31T23:17:43.464Z,461.63
2017-12-31T23:20:11.070Z,542.83
2017-12-31T23:22:38.579Z,533.13
2017-12-31T23:25:06.086Z,646.17
2017-12-31T23:27:33.792Z,552.87
2017-12-31T23:30:01.296Z,602.63
2017-12-31T23:32:28.811Z,597.37
2017-12-31T23:34:56.329Z,552.23
2017-12-31T23:37:23.865Z,563.17
2017-12-31T23:39:51.375Z,513.53
2017-12-31T23:42:18.888Z,480.27
2017-12-31T23:44:46.774Z,456.33
2017-12-31T23:47:14.298Z,379.57
2017-12-31T23:49:41.815Z,366.97
2017-12-31T23:52:10.224Z,274.53
2017-12-31T23:54:37.739Z,267.30
2017-12-31T23:57:05.419Z,225.43
2017-12-31T23:59:32.923Z,252.57
